Time;durP1;ratioP1;P1;durP2;ratioP2;P2;SDS_P1;SDS_P2;PMS_P1;PMS_P2;Temp;Humidity;BMP_temperature;BMP_pressure;BME280_temperature;BME280_humidity;BME280_pressure;Samples;Min_cycle;Max_cycle;Signal;HPM_P1;HPM_P2
2022/12/24 00:02:12;;;;;;;1999.90;999.90;;;11.70;99.90;;;;;;6738877;88;20185;-77
2022/12/24 00:12:12;;;;;;;1999.90;999.90;;;11.50;99.90;;;;;;6738266;88;20321;-76
2022/12/24 00:22:13;;;;;;;1999.90;999.90;;;11.50;99.90;;;;;;6738239;88;20213;-76
2022/12/24 00:32:13;;;;;;;1999.90;999.90;;;11.40;99.90;;;;;;6737879;88;20227;-76
2022/12/24 00:42:14;;;;;;;1999.90;999.90;;;11.20;99.90;;;;;;6737741;88;20664;-76
2022/12/24 00:52:14;;;;;;;1999.90;999.90;;;11.30;99.90;;;;;;6738468;88;20277;-78
2022/12/24 01:02:15;;;;;;;1999.90;999.90;;;11.40;99.90;;;;;;6739239;88;20200;-79
2022/12/24 01:12:16;;;;;;;1999.90;999.90;;;11.40;99.90;;;;;;6738897;88;20200;-76
2022/12/24 01:22:16;;;;;;;1999.90;999.90;;;11.40;99.90;;;;;;6727835;77;20202;-74
2022/12/24 01:32:17;;;;;;;1999.90;999.90;;;11.50;99.90;;;;;;6694334;88;20191;-74
2022/12/24 01:52:41;;;;;;;1999.90;999.90;;;11.50;99.90;;;;;;6691036;88;20217;-74
2022/12/24 02:02:48;;;;;;;1999.90;999.90;;;11.50;99.90;;;;;;6690368;88;20297;-75
2022/12/24 02:12:49;;;;;;;1999.90;999.90;;;11.40;99.90;;;;;;6692292;88;20170;-75
2022/12/24 02:23:04;;;;;;;1999.90;999.90;;;11.30;99.90;;;;;;6690742;88;20224;-75
2022/12/24 02:33:19;;;;;;;1999.90;999.90;;;11.20;99.90;;;;;;6695284;88;20202;-75
2022/12/24 02:43:24;;;;;;;1999.90;999.90;;;11.10;99.90;;;;;;6695051;88;20322;-75
2022/12/24 02:53:24;;;;;;;1999.90;999.90;;;10.90;99.90;;;;;;6697875;88;20182;-74
2022/12/24 03:03:43;;;;;;;1999.90;999.90;;;11.00;99.90;;;;;;6699617;88;20283;-74
2022/12/24 03:13:45;;;;;;;1999.90;999.90;;;11.00;99.90;;;;;;6693793;88;20197;-74
2022/12/24 03:23:46;;;;;;;1999.90;999.90;;;11.10;99.90;;;;;;6695048;88;20206;-74
2022/12/24 03:33:48;;;;;;;1999.90;999.90;;;10.80;99.90;;;;;;6690575;88;20174;-74
2022/12/24 03:43:48;;;;;;;1999.90;999.90;;;10.30;99.90;;;;;;6693515;88;20236;-75
2022/12/24 03:53:50;;;;;;;1999.90;999.90;;;10.10;99.90;;;;;;6690936;88;20194;-75
2022/12/24 04:03:51;;;;;;;1999.90;999.90;;;10.10;99.90;;;;;;6698968;88;20312;-75
2022/12/24 04:13:51;;;;;;;1999.90;999.90;;;10.20;99.90;;;;;;6718757;88;20568;-75
2022/12/24 04:23:52;;;;;;;1999.90;999.90;;;9.90;99.90;;;;;;6707219;88;20521;-75
2022/12/24 04:33:52;;;;;;;1999.90;999.90;;;10.00;99.90;;;;;;6711343;88;20264;-74
2022/12/24 04:43:53;;;;;;;1999.90;999.90;;;9.80;99.90;;;;;;6709201;88;20241;-75
2022/12/24 04:53:55;;;;;;;1999.90;999.90;;;9.50;99.90;;;;;;6704514;88;20198;-75
2022/12/24 05:03:57;;;;;;;1999.90;999.90;;;9.50;99.90;;;;;;6699934;88;20248;-74
2022/12/24 05:13:58;;;;;;;1999.90;999.90;;;9.40;99.90;;;;;;6706662;88;20261;-75
2022/12/24 05:34:18;;;;;;;1999.90;999.90;;;9.50;99.90;;;;;;6698571;88;20627;-75
2022/12/24 05:44:18;;;;;;;1999.90;999.90;;;9.80;99.90;;;;;;6699143;88;20374;-75
2022/12/24 05:54:19;;;;;;;1999.90;999.90;;;9.80;99.90;;;;;;6698175;88;20305;-75
2022/12/24 06:04:19;;;;;;;1999.90;999.90;;;9.80;99.90;;;;;;6694180;88;20707;-75
2022/12/24 06:14:20;;;;;;;1999.90;999.90;;;9.90;99.90;;;;;;6692505;88;20233;-75
2022/12/24 06:24:20;;;;;;;1999.90;999.90;;;9.80;99.90;;;;;;6696027;88;20758;-74
2022/12/24 06:34:21;;;;;;;1999.90;999.90;;;9.70;99.90;;;;;;6692798;88;20205;-75
2022/12/24 06:44:21;;;;;;;1999.90;999.90;;;9.80;99.90;;;;;;6691074;88;20382;-74
2022/12/24 06:54:22;;;;;;;1999.90;999.90;;;9.80;99.90;;;;;;6690808;88;20628;-74
2022/12/24 07:04:22;;;;;;;1999.90;999.90;;;9.80;99.90;;;;;;6695057;88;20700;-74
2022/12/24 07:14:23;;;;;;;1999.90;999.90;;;9.80;99.90;;;;;;6688780;88;20637;-74
2022/12/24 07:24:23;;;;;;;1999.90;999.90;;;10.00;99.90;;;;;;6701605;77;20265;-74
2022/12/24 07:34:24;;;;;;;1999.90;999.90;;;9.90;99.90;;;;;;6694576;88;21269;-74
2022/12/24 07:44:24;;;;;;;1999.90;999.90;;;9.70;99.90;;;;;;6689001;88;20229;-74
2022/12/24 07:54:25;;;;;;;1999.90;999.90;;;9.60;99.90;;;;;;6686718;88;20229;-74
2022/12/24 08:04:25;;;;;;;1999.90;999.90;;;9.60;99.90;;;;;;6682073;88;20344;-73
2022/12/24 08:14:26;;;;;;;1999.90;999.90;;;9.70;99.90;;;;;;6685567;88;20261;-74
2022/12/24 08:24:27;;;;;;;1999.90;999.90;;;9.80;99.90;;;;;;6683117;88;20690;-74
2022/12/24 08:34:27;;;;;;;1999.90;999.90;;;9.90;99.90;;;;;;6686739;88;20247;-74
2022/12/24 08:44:28;;;;;;;1999.90;999.90;;;10.20;99.90;;;;;;6687502;88;20225;-74
2022/12/24 08:54:28;;;;;;;1999.90;999.90;;;10.40;99.90;;;;;;6679544;88;20723;-74
2022/12/24 09:04:29;;;;;;;1999.90;999.90;;;10.50;99.90;;;;;;6690359;88;20218;-73
2022/12/24 09:14:30;;;;;;;1999.90;999.90;;;11.40;99.90;;;;;;6692557;88;20204;-74
2022/12/24 09:24:31;;;;;;;1999.90;999.90;;;11.60;99.90;;;;;;6686975;88;20217;-74
2022/12/24 09:34:31;;;;;;;1999.90;999.90;;;12.10;99.90;;;;;;6686909;88;20304;-74
2022/12/24 09:44:44;;;;;;;1999.90;999.90;;;12.60;99.90;;;;;;6678989;88;20194;-73
2022/12/24 09:54:52;;;;;;;1999.90;999.90;;;12.80;99.90;;;;;;6676265;88;20324;-75
2022/12/24 10:04:54;;;;;;;1999.90;999.90;;;13.50;99.90;;;;;;6678568;88;20195;-74
2022/12/24 10:15:17;;;;;;;1999.90;999.90;;;13.00;99.90;;;;;;6680095;88;20194;-74
2022/12/24 10:25:29;;;;;;;1999.90;999.90;;;12.70;99.90;;;;;;6676105;88;20322;-74
2022/12/24 10:35:38;;;;;;;1999.90;999.90;;;12.70;99.90;;;;;;6674299;88;20218;-74
2022/12/24 10:45:43;;;;;;;1999.90;999.90;;;12.60;99.90;;;;;;6675915;88;20202;-74
2022/12/24 10:55:43;;;;;;;1999.90;999.90;;;12.60;99.90;;;;;;6681871;88;20695;-74
2022/12/24 11:05:44;;;;;;;1999.90;999.90;;;12.50;99.90;;;;;;6673999;88;20237;-75
2022/12/24 11:15:45;;;;;;;1999.90;999.90;;;12.60;99.90;;;;;;6680157;88;20202;-74
2022/12/24 11:25:48;;;;;;;1999.90;999.90;;;12.70;99.90;;;;;;6682936;88;20330;-74
2022/12/24 11:35:53;;;;;;;1999.90;999.90;;;12.70;99.90;;;;;;6674546;88;20253;-74
2022/12/24 11:45:56;;;;;;;1999.90;999.90;;;13.10;99.90;;;;;;6679266;88;20204;-74
2022/12/24 11:55:59;;;;;;;1999.90;999.90;;;13.10;99.90;;;;;;6688409;88;20381;-73
2022/12/24 12:06:06;;;;;;;1999.90;999.90;;;12.80;99.90;;;;;;6680951;88;20294;-73
2022/12/24 12:16:59;;;;;;;1999.90;999.90;;;12.70;99.90;;;;;;6681428;88;20187;-74
2022/12/24 12:27:22;;;;;;;1999.90;999.90;;;12.80;99.90;;;;;;6680687;88;20220;-74
2022/12/24 12:37:46;;;;;;;1999.90;999.90;;;12.90;99.90;;;;;;6687541;88;20175;-74
2022/12/24 12:48:14;;;;;;;1999.90;999.90;;;12.90;99.90;;;;;;6682921;88;20677;-73
2022/12/24 12:58:24;;;;;;;1999.90;999.90;;;12.90;99.90;;;;;;6679654;88;20687;-74
2022/12/24 13:09:00;;;;;;;1999.90;999.90;;;13.60;99.90;;;;;;6674665;88;20242;-73
2022/12/24 13:19:07;;;;;;;1999.90;999.90;;;13.90;99.90;;;;;;6677402;88;20914;-74
2022/12/24 13:29:37;;;;;;;1999.90;999.90;;;14.60;99.90;;;;;;6677198;88;20594;-74
2022/12/24 13:40:02;;;;;;;1999.90;999.90;;;14.10;99.90;;;;;;6679175;88;20195;-74
2022/12/24 13:50:22;;;;;;;1999.90;999.90;;;13.40;99.90;;;;;;6677272;88;20707;-74
2022/12/24 14:00:59;;;;;;;1999.90;999.90;;;13.20;99.90;;;;;;6681617;88;20211;-73
2022/12/24 14:11:16;;;;;;;1999.90;999.90;;;13.80;99.90;;;;;;6682081;88;20659;-74
2022/12/24 14:21:23;;;;;;;1999.90;999.90;;;13.70;99.90;;;;;;6686849;88;20309;-74
2022/12/24 14:31:24;;;;;;;1999.90;999.90;;;13.50;99.90;;;;;;6685497;88;20547;-74
2022/12/24 14:41:34;;;;;;;1999.90;999.90;;;13.40;99.90;;;;;;6685989;88;20322;-74
2022/12/24 14:51:37;;;;;;;1999.90;999.90;;;12.90;99.90;;;;;;6677599;88;20332;-74
2022/12/24 15:01:38;;;;;;;1999.90;999.90;;;12.90;99.90;;;;;;6681214;88;20187;-74
2022/12/24 15:11:43;;;;;;;1999.90;999.90;;;12.70;99.90;;;;;;6678509;88;20180;-73
2022/12/24 15:21:43;;;;;;;1999.90;999.90;;;12.40;99.90;;;;;;6674511;88;20381;-73
2022/12/24 15:31:44;;;;;;;1999.90;999.90;;;12.10;99.90;;;;;;6692952;88;20359;-74
2022/12/24 15:52:10;;;;;;;1999.90;999.90;;;11.90;99.90;;;;;;6682354;88;20651;-74
2022/12/24 16:02:30;;;;;;;1999.90;999.90;;;11.70;99.90;;;;;;6676432;88;20215;-76
2022/12/24 16:12:31;;;;;;;1999.90;999.90;;;11.60;99.90;;;;;;6675045;88;20494;-74
2022/12/24 16:22:34;;;;;;;1999.90;999.90;;;11.20;99.90;;;;;;6683202;88;20225;-75
2022/12/24 16:32:36;;;;;;;1999.90;999.90;;;10.90;99.90;;;;;;6677054;88;20197;-74
2022/12/24 16:52:56;;;;;;;1999.90;999.90;;;10.10;99.90;;;;;;6682327;88;20204;-74
2022/12/24 17:02:56;;;;;;;1999.90;999.90;;;9.80;99.90;;;;;;6678599;88;20317;-74
2022/12/24 17:12:57;;;;;;;1999.90;999.90;;;9.80;99.90;;;;;;6679158;88;20683;-74
2022/12/24 17:22:58;;;;;;;1999.90;999.90;;;9.70;99.90;;;;;;6687385;88;20655;-73
2022/12/24 17:32:58;;;;;;;1999.90;999.90;;;9.60;99.90;;;;;;6683348;88;20209;-73
2022/12/24 17:42:59;;;;;;;1999.90;999.90;;;9.40;99.90;;;;;;6681058;88;20437;-74
2022/12/24 17:52:59;;;;;;;1999.90;999.90;;;9.10;99.90;;;;;;6684260;88;20682;-74
2022/12/24 18:03:00;;;;;;;1999.90;999.90;;;9.00;99.90;;;;;;6682031;88;20514;-74
2022/12/24 18:13:01;;;;;;;1999.90;999.90;;;9.00;99.90;;;;;;6676855;88;20267;-74
2022/12/24 18:23:02;;;;;;;1999.90;999.90;;;9.30;99.90;;;;;;6681175;88;20183;-74
2022/12/24 18:33:02;;;;;;;1999.90;999.90;;;9.20;99.90;;;;;;6680323;88;20263;-74
2022/12/24 18:43:03;;;;;;;1999.90;999.90;;;9.00;99.90;;;;;;6676650;88;20361;-73
2022/12/24 18:53:05;;;;;;;1999.90;999.90;;;8.90;99.90;;;;;;6677995;88;20212;-74
2022/12/24 19:03:05;;;;;;;1999.90;999.90;;;8.80;99.90;;;;;;6689112;88;20199;-74
2022/12/24 19:13:06;;;;;;;1999.90;999.90;;;9.00;99.90;;;;;;6688653;88;20204;-74
2022/12/24 19:23:07;;;;;;;1999.90;999.90;;;8.80;99.90;;;;;;6694873;77;20341;-75
2022/12/24 19:33:08;;;;;;;1999.90;999.90;;;8.60;99.90;;;;;;6696961;88;20546;-75
2022/12/24 19:43:09;;;;;;;1999.90;999.90;;;8.60;99.90;;;;;;6688730;88;20353;-76
2022/12/24 19:53:09;;;;;;;1999.90;999.90;;;8.70;99.90;;;;;;6695722;88;20359;-75
2022/12/24 20:03:10;;;;;;;1999.90;999.90;;;8.80;99.90;;;;;;6696321;88;20344;-75
2022/12/24 20:13:10;;;;;;;1999.90;999.90;;;8.90;99.90;;;;;;6697828;88;20340;-75
2022/12/24 20:23:11;;;;;;;1999.90;999.90;;;9.00;99.90;;;;;;6697630;88;20678;-75
2022/12/24 20:33:11;;;;;;;1999.90;999.90;;;8.90;99.90;;;;;;6695240;88;20222;-74
2022/12/24 20:43:12;;;;;;;1999.90;999.90;;;8.90;99.90;;;;;;6694162;88;20526;-74
2022/12/24 20:53:13;;;;;;;1999.90;999.90;;;8.90;99.90;;;;;;6695327;88;20230;-74
2022/12/24 21:03:14;;;;;;;1999.90;999.90;;;8.90;99.90;;;;;;6692952;88;20304;-74
2022/12/24 21:13:14;;;;;;;1999.90;999.90;;;8.90;99.90;;;;;;6696200;88;20198;-74
2022/12/24 21:23:15;;;;;;;1999.90;999.90;;;9.10;99.90;;;;;;6697056;88;20215;-74
2022/12/24 21:33:15;;;;;;;1999.90;999.90;;;9.10;99.90;;;;;;6691716;88;20625;-74
2022/12/24 21:43:16;;;;;;;1999.90;999.90;;;9.10;99.90;;;;;;6692663;88;20243;-74
2022/12/24 22:03:37;;;;;;;1999.90;999.90;;;9.00;99.90;;;;;;6701770;88;20272;-74
2022/12/24 22:13:37;;;;;;;1999.90;999.90;;;9.00;99.90;;;;;;6693365;88;20297;-74
2022/12/24 22:23:38;;;;;;;1999.90;999.90;;;9.10;99.90;;;;;;6694082;88;20202;-74
2022/12/24 22:33:39;;;;;;;1999.90;999.90;;;9.20;99.90;;;;;;6699069;88;20367;-74
2022/12/24 22:43:40;;;;;;;1999.90;999.90;;;9.10;99.90;;;;;;6709580;88;20203;-74
2022/12/24 22:53:41;;;;;;;1999.90;999.90;;;9.00;99.90;;;;;;6694911;88;20194;-74
2022/12/24 23:03:42;;;;;;;1999.90;999.90;;;8.80;99.90;;;;;;6693949;88;20263;-74
2022/12/24 23:24:03;;;;;;;1999.90;999.90;;;8.60;99.90;;;;;;6696212;88;20186;-74
2022/12/24 23:34:03;;;;;;;1999.90;999.90;;;8.70;99.90;;;;;;6695794;88;20196;-74
2022/12/24 23:44:04;;;;;;;1999.90;999.90;;;8.80;99.90;;;;;;6698147;88;20181;-74
2022/12/24 23:54:05;;;;;;;1999.90;999.90;;;8.90;99.90;;;;;;6701099;88;20661;-74
